createdAt,value
2023-02-13T00:00:35.846Z,100.00
2023-02-13T00:03:03.722Z,100.00
2023-02-13T00:05:30.780Z,100.00
2023-02-13T00:07:57.789Z,100.00
2023-02-13T00:10:28.435Z,100.00
2023-02-13T00:12:56.480Z,100.00
2023-02-13T00:15:23.453Z,100.00
2023-02-13T00:17:50.553Z,100.00
2023-02-13T00:20:17.705Z,100.00
2023-02-13T00:22:44.636Z,100.00
2023-02-13T00:25:11.808Z,100.00
2023-02-13T00:27:38.808Z,100.00
2023-02-13T00:30:06.550Z,100.00
2023-02-13T00:32:33.742Z,100.00
2023-02-13T00:35:01.002Z,100.00
2023-02-13T00:37:28.184Z,100.00
2023-02-13T00:39:56.404Z,100.00
2023-02-13T00:42:26.688Z,100.00
2023-02-13T00:44:54.806Z,100.00
2023-02-13T00:47:23.401Z,100.00
2023-02-13T00:49:50.525Z,100.00
2023-02-13T00:52:17.566Z,100.00
2023-02-13T00:54:44.687Z,100.00
2023-02-13T00:57:13.057Z,100.00
2023-02-13T00:59:42.272Z,100.00
2023-02-13T01:02:09.315Z,100.00
2023-02-13T01:04:36.308Z,100.00
2023-02-13T01:07:03.383Z,100.00
2023-02-13T01:09:30.401Z,100.00
2023-02-13T01:11:57.366Z,100.00
2023-02-13T01:14:24.371Z,100.00
2023-02-13T01:16:51.431Z,100.00
2023-02-13T01:19:18.902Z,100.00
2023-02-13T01:21:45.938Z,100.00
2023-02-13T01:24:12.963Z,100.00
2023-02-13T01:26:45.785Z,100.00
2023-02-13T01:29:14.178Z,100.00
2023-02-13T01:31:41.687Z,100.00
2023-02-13T01:34:09.035Z,100.00
2023-02-13T01:36:35.962Z,100.00
2023-02-13T01:39:03.450Z,100.00
2023-02-13T01:41:32.123Z,100.00
2023-02-13T01:44:01.348Z,100.00
2023-02-13T01:46:48.709Z,100.00
2023-02-13T01:49:20.220Z,100.00
2023-02-13T01:51:51.363Z,100.00
2023-02-13T01:54:24.088Z,100.00
2023-02-13T01:56:58.185Z,100.00
2023-02-13T01:59:31.344Z,100.00
2023-02-13T02:02:00.949Z,100.00
2023-02-13T02:04:41.014Z,100.00
2023-02-13T02:07:23.815Z,100.00
2023-02-13T02:09:53.993Z,100.00
2023-02-13T02:12:27.658Z,100.00
2023-02-13T02:14:58.176Z,100.00
2023-02-13T02:17:27.192Z,100.00
2023-02-13T02:20:00.050Z,100.00
2023-02-13T02:22:43.437Z,100.00
2023-02-13T02:25:18.682Z,100.00
2023-02-13T02:28:00.904Z,100.00
2023-02-13T02:31:05.124Z,100.00
2023-02-13T02:33:57.367Z,100.00
2023-02-13T02:36:58.106Z,100.00
2023-02-13T02:39:40.825Z,100.00
2023-02-13T02:42:25.376Z,100.00
2023-02-13T02:44:57.889Z,100.00
2023-02-13T02:47:48.598Z,100.00
2023-02-13T02:50:33.368Z,100.00
2023-02-13T02:53:09.389Z,100.00
2023-02-13T02:55:45.074Z,100.00
2023-02-13T02:58:39.550Z,100.00
2023-02-13T03:01:30.726Z,100.00
2023-02-13T03:04:18.810Z,100.00
2023-02-13T03:07:00.187Z,100.00
2023-02-13T03:09:51.233Z,100.00
2023-02-13T03:12:41.866Z,100.00
2023-02-13T03:15:09.927Z,100.00
2023-02-13T03:17:56.688Z,100.00
2023-02-13T03:20:58.081Z,100.00
2023-02-13T03:24:12.597Z,100.00
2023-02-13T03:26:50.804Z,100.00
2023-02-13T03:29:43.111Z,100.00
2023-02-13T03:32:36.363Z,100.00
2023-02-13T03:35:40.347Z,100.00
2023-02-13T03:38:20.830Z,100.00
2023-02-13T03:41:18.597Z,100.00
2023-02-13T03:44:11.757Z,100.00
2023-02-13T03:46:57.760Z,100.00
2023-02-13T03:49:55.699Z,100.00
2023-02-13T03:52:36.182Z,100.00
2023-02-13T03:55:28.115Z,100.00
2023-02-13T03:58:17.489Z,100.00
2023-02-13T04:00:51.536Z,100.00
2023-02-13T04:03:51.175Z,100.00
2023-02-13T04:06:58.573Z,100.00
2023-02-13T04:09:28.171Z,100.00
2023-02-13T04:12:13.269Z,100.00
2023-02-13T04:14:46.176Z,100.00
2023-02-13T04:17:20.339Z,100.00
2023-02-13T04:19:47.866Z,100.00
2023-02-13T04:22:15.393Z,100.00
2023-02-13T04:24:42.383Z,100.00
2023-02-13T04:27:13.944Z,100.00
2023-02-13T04:29:41.517Z,100.00
2023-02-13T04:32:10.812Z,100.00
2023-02-13T04:34:38.555Z,100.00
2023-02-13T04:37:05.770Z,100.00
2023-02-13T04:39:32.826Z,100.00
2023-02-13T04:41:59.798Z,100.00
2023-02-13T04:44:26.848Z,100.00
2023-02-13T04:46:53.794Z,100.00
2023-02-13T04:49:20.817Z,100.00
2023-02-13T04:51:47.793Z,100.00
2023-02-13T04:54:14.829Z,100.00
2023-02-13T04:56:41.803Z,100.00
2023-02-13T04:59:08.831Z,100.00
2023-02-13T05:01:35.889Z,100.00
2023-02-13T05:04:03.201Z,100.00
2023-02-13T05:06:30.215Z,100.00
2023-02-13T05:08:57.234Z,100.00
2023-02-13T05:11:24.306Z,100.00
2023-02-13T05:13:51.303Z,100.00
2023-02-13T05:16:18.543Z,100.00
2023-02-13T05:18:45.892Z,100.00
2023-02-13T05:21:32.720Z,100.00
2023-02-13T05:23:59.999Z,100.00
2023-02-13T05:26:26.948Z,100.00
2023-02-13T05:29:13.528Z,100.00
2023-02-13T05:31:40.828Z,100.00
2023-02-13T05:34:07.896Z,100.00
2023-02-13T05:36:36.421Z,100.00
2023-02-13T05:39:04.171Z,100.00
2023-02-13T05:41:31.510Z,100.00
2023-02-13T05:43:58.685Z,100.00
2023-02-13T05:46:26.197Z,100.00
2023-02-13T05:48:53.254Z,100.00
2023-02-13T05:51:21.496Z,100.00
2023-02-13T05:53:48.466Z,100.00
2023-02-13T05:56:15.917Z,100.00
2023-02-13T05:58:43.056Z,100.00
2023-02-13T06:01:10.936Z,100.00
2023-02-13T06:03:37.910Z,100.00
2023-02-13T06:06:05.672Z,100.00
2023-02-13T06:08:33.274Z,100.00
2023-02-13T06:11:01.260Z,100.00
2023-02-13T06:13:29.018Z,100.00
2023-02-13T06:15:56.319Z,100.00
2023-02-13T06:18:23.794Z,100.00
2023-02-13T06:20:51.683Z,100.00
2023-02-13T06:23:18.755Z,100.00
2023-02-13T06:25:46.018Z,100.00
2023-02-13T06:28:13.670Z,100.00
2023-02-13T06:30:41.147Z,100.00
2023-02-13T06:33:08.182Z,100.00
2023-02-13T06:35:35.794Z,100.00
2023-02-13T06:38:03.018Z,100.00
2023-02-13T06:40:30.416Z,100.00
2023-02-13T06:42:57.657Z,100.00
2023-02-13T06:45:30.703Z,100.00
2023-02-13T06:48:00.127Z,100.00
2023-02-13T06:50:27.176Z,100.00
2023-02-13T06:52:54.201Z,100.00
2023-02-13T06:55:21.456Z,100.00
2023-02-13T06:57:48.897Z,100.00
2023-02-13T07:00:18.428Z,100.00
2023-02-13T07:02:47.183Z,100.00
2023-02-13T07:05:15.043Z,100.00
2023-02-13T07:07:43.656Z,100.00
2023-02-13T07:10:13.565Z,100.00
2023-02-13T07:12:41.700Z,100.00
2023-02-13T07:15:09.426Z,100.00
2023-02-13T07:17:36.479Z,100.00
2023-02-13T07:20:06.897Z,100.00
2023-02-13T07:22:33.889Z,100.00
2023-02-13T07:25:02.514Z,100.00
2023-02-13T07:27:29.703Z,100.00
2023-02-13T07:29:57.841Z,100.00
2023-02-13T07:32:25.832Z,100.00
2023-02-13T07:35:01.559Z,100.00
2023-02-13T07:37:31.344Z,100.00
2023-02-13T07:39:58.706Z,100.00
2023-02-13T07:42:26.339Z,100.00
2023-02-13T07:44:53.407Z,100.00
2023-02-13T07:47:20.782Z,100.00
2023-02-13T07:49:47.943Z,100.00
2023-02-13T07:52:15.244Z,100.00
2023-02-13T07:54:47.952Z,100.00
2023-02-13T07:57:16.792Z,100.00
2023-02-13T07:59:44.397Z,100.00
2023-02-13T08:02:14.573Z,100.00
2023-02-13T08:04:46.924Z,100.00
2023-02-13T08:07:16.271Z,100.00
2023-02-13T08:10:04.687Z,100.00
2023-02-13T08:12:35.237Z,100.00
2023-02-13T08:15:02.586Z,100.00
2023-02-13T08:17:29.906Z,100.00
2023-02-13T08:19:57.498Z,100.00
2023-02-13T08:22:24.484Z,100.00
2023-02-13T08:24:52.467Z,100.00
2023-02-13T08:27:19.522Z,100.00
2023-02-13T08:29:46.543Z,100.00
2023-02-13T08:32:13.644Z,100.00
2023-02-13T08:34:40.719Z,100.00
2023-02-13T08:37:07.749Z,100.00
2023-02-13T08:39:34.800Z,100.00
2023-02-13T08:42:01.923Z,100.00
2023-02-13T08:44:29.121Z,100.00
2023-02-13T08:46:56.417Z,100.00
2023-02-13T08:49:23.830Z,100.00
2023-02-13T08:51:51.558Z,100.00
2023-02-13T08:54:18.906Z,100.00
2023-02-13T08:56:45.995Z,100.00
2023-02-13T08:59:13.767Z,100.00
2023-02-13T09:01:41.087Z,99.10
2023-02-13T09:04:08.260Z,97.33
2023-02-13T09:06:35.286Z,100.00
2023-02-13T09:09:02.347Z,100.00
2023-02-13T09:11:29.278Z,99.09
2023-02-13T09:13:56.336Z,97.18
2023-02-13T09:16:23.414Z,91.60
2023-02-13T09:18:51.672Z,92.23
2023-02-13T09:21:21.136Z,90.24
2023-02-13T09:23:48.176Z,90.52
2023-02-13T09:26:16.568Z,90.41
2023-02-13T09:28:44.200Z,90.94
2023-02-13T09:31:12.885Z,86.42
2023-02-13T09:33:39.982Z,82.07
2023-02-13T09:36:13.656Z,78.74
2023-02-13T09:38:45.048Z,81.63
2023-02-13T09:41:34.799Z,79.01
2023-02-13T09:44:34.697Z,79.68
2023-02-13T09:47:11.038Z,79.74
2023-02-13T09:49:44.392Z,80.74
2023-02-13T09:52:11.546Z,79.43
2023-02-13T09:54:38.962Z,74.98
2023-02-13T09:57:36.761Z,73.53
2023-02-13T10:00:27.006Z,68.02
2023-02-13T10:03:07.667Z,67.93
2023-02-13T10:05:58.133Z,69.86
2023-02-13T10:08:43.737Z,67.30
2023-02-13T10:11:36.826Z,64.58
2023-02-13T10:14:28.541Z,63.16
2023-02-13T10:17:14.701Z,61.26
2023-02-13T10:19:49.204Z,63.75
2023-02-13T10:22:47.328Z,62.20
2023-02-13T10:25:28.607Z,60.80
2023-02-13T10:27:58.138Z,60.93
2023-02-13T10:30:32.553Z,61.33
2023-02-13T10:33:31.942Z,60.40
2023-02-13T10:36:26.144Z,60.48
2023-02-13T10:39:05.606Z,60.01
2023-02-13T10:41:43.604Z,58.92
2023-02-13T10:44:13.527Z,59.15
2023-02-13T10:46:40.503Z,60.17
2023-02-13T10:49:29.167Z,58.94
2023-02-13T10:52:05.677Z,58.58
2023-02-13T10:54:48.240Z,57.46
2023-02-13T10:57:30.647Z,57.35
2023-02-13T11:00:13.263Z,56.79
2023-02-13T11:02:41.568Z,55.73
2023-02-13T11:05:24.128Z,53.87
2023-02-13T11:07:51.671Z,53.88
2023-02-13T11:10:23.313Z,55.12
2023-02-13T11:12:52.162Z,53.88
2023-02-13T11:15:22.345Z,56.30
2023-02-13T11:18:03.539Z,56.32
2023-02-13T11:20:44.792Z,55.06
2023-02-13T11:23:21.426Z,52.82
2023-02-13T11:25:58.377Z,52.39
2023-02-13T11:28:28.464Z,50.84
2023-02-13T11:31:10.906Z,52.10
2023-02-13T11:33:38.768Z,53.64
2023-02-13T11:36:24.784Z,50.80
2023-02-13T11:39:19.391Z,51.19
2023-02-13T11:41:50.980Z,51.30
2023-02-13T11:44:29.519Z,49.04
2023-02-13T11:46:59.361Z,49.58
2023-02-13T11:49:29.555Z,49.34
2023-02-13T11:51:58.938Z,48.79
2023-02-13T11:54:39.131Z,48.82
2023-02-13T11:57:25.871Z,46.83
2023-02-13T11:59:54.286Z,47.26
2023-02-13T12:02:24.073Z,46.26
2023-02-13T12:04:53.776Z,46.30
2023-02-13T12:07:20.760Z,46.37
2023-02-13T12:10:13.030Z,45.36
2023-02-13T12:13:03.634Z,46.09
2023-02-13T12:15:34.937Z,45.58
2023-02-13T12:18:05.207Z,46.98
2023-02-13T12:21:04.395Z,44.24
2023-02-13T12:23:52.930Z,44.20
2023-02-13T12:26:36.520Z,44.77
2023-02-13T12:29:23.261Z,43.48
2023-02-13T12:32:11.003Z,43.57
2023-02-13T12:35:11.627Z,42.00
2023-02-13T12:37:56.680Z,42.57
2023-02-13T12:40:37.014Z,43.20
2023-02-13T12:43:46.355Z,41.42
2023-02-13T12:46:37.055Z,41.29
2023-02-13T12:49:26.557Z,41.39
2023-02-13T12:52:06.813Z,40.85
2023-02-13T12:54:37.597Z,41.15
2023-02-13T12:57:38.978Z,38.00
2023-02-13T13:00:21.207Z,40.14
2023-02-13T13:03:15.625Z,41.48
2023-02-13T13:06:16.273Z,40.86
2023-02-13T13:09:20.862Z,38.85
2023-02-13T13:12:13.648Z,38.55
2023-02-13T13:15:06.043Z,36.95
2023-02-13T13:17:42.485Z,38.22
2023-02-13T13:20:18.103Z,37.57
2023-02-13T13:22:53.844Z,35.59
2023-02-13T13:25:31.991Z,36.66
2023-02-13T13:28:08.708Z,34.94
2023-02-13T13:30:38.143Z,34.34
2023-02-13T13:33:10.253Z,38.32
2023-02-13T13:35:43.197Z,35.60
2023-02-13T13:38:30.589Z,35.13
2023-02-13T13:41:09.488Z,40.27
2023-02-13T13:43:57.738Z,36.05
2023-02-13T13:46:29.355Z,37.92
2023-02-13T13:49:22.372Z,33.64
2023-02-13T13:51:49.393Z,34.00
2023-02-13T13:54:16.313Z,34.60
2023-02-13T13:57:02.248Z,35.13
2023-02-13T13:59:37.892Z,35.22
2023-02-13T14:02:20.404Z,32.44
2023-02-13T14:05:24.564Z,33.30
2023-02-13T14:07:55.359Z,34.16
2023-02-13T14:10:22.367Z,34.83
2023-02-13T14:13:00.994Z,35.27
2023-02-13T14:15:42.580Z,34.53
2023-02-13T14:18:12.629Z,35.59
2023-02-13T14:20:44.477Z,32.42
2023-02-13T14:23:35.851Z,31.83
2023-02-13T14:26:18.450Z,33.91
2023-02-13T14:28:51.555Z,34.80
2023-02-13T14:31:36.201Z,32.55
2023-02-13T14:34:12.580Z,34.23
2023-02-13T14:36:49.488Z,31.91
2023-02-13T14:39:20.722Z,35.42
2023-02-13T14:41:58.929Z,31.96
2023-02-13T14:44:56.632Z,33.73
2023-02-13T14:47:44.140Z,34.62
2023-02-13T14:50:26.881Z,33.29
2023-02-13T14:52:55.849Z,34.29
2023-02-13T14:55:36.416Z,33.63
2023-02-13T14:58:22.997Z,32.88
2023-02-13T15:00:56.493Z,34.17
2023-02-13T15:03:47.305Z,35.20
2023-02-13T15:06:20.309Z,37.08
2023-02-13T15:08:51.796Z,36.18
2023-02-13T15:11:43.379Z,36.10
2023-02-13T15:14:19.416Z,37.24
2023-02-13T15:16:55.118Z,36.84
2023-02-13T15:19:24.634Z,37.68
2023-02-13T15:22:02.874Z,37.65
2023-02-13T15:24:37.021Z,38.94
2023-02-13T15:27:07.227Z,41.87
2023-02-13T15:29:48.894Z,39.90
2023-02-13T15:32:21.376Z,39.36
2023-02-13T15:34:49.210Z,39.27
2023-02-13T15:37:24.756Z,40.19
2023-02-13T15:39:51.967Z,40.40
2023-02-13T15:42:19.260Z,40.90
2023-02-13T15:44:50.529Z,41.47
2023-02-13T15:47:30.730Z,41.81
2023-02-13T15:49:59.198Z,42.61
2023-02-13T15:52:36.862Z,43.46
2023-02-13T15:55:04.804Z,43.10
2023-02-13T15:57:32.345Z,43.71
2023-02-13T16:00:01.421Z,44.21
2023-02-13T16:02:48.305Z,44.18
2023-02-13T16:05:20.041Z,44.68
2023-02-13T16:07:57.813Z,44.67
2023-02-13T16:10:32.736Z,45.40
2023-02-13T16:13:04.127Z,46.21
2023-02-13T16:15:34.449Z,46.20
2023-02-13T16:18:04.458Z,46.45
2023-02-13T16:20:33.602Z,46.54
2023-02-13T16:23:14.419Z,47.12
2023-02-13T16:25:42.132Z,47.93
2023-02-13T16:28:21.558Z,50.05
2023-02-13T16:31:07.499Z,48.31
2023-02-13T16:33:38.363Z,48.74
2023-02-13T16:36:11.457Z,49.11
2023-02-13T16:38:49.893Z,50.36
2023-02-13T16:41:19.998Z,50.94
2023-02-13T16:44:22.146Z,50.60
2023-02-13T16:46:58.054Z,53.74
2023-02-13T16:49:28.911Z,56.07
2023-02-13T16:52:07.513Z,64.94
2023-02-13T16:54:57.416Z,78.52
2023-02-13T16:57:30.297Z,73.54
2023-02-13T17:00:19.292Z,66.77
2023-02-13T17:02:47.638Z,64.77
2023-02-13T17:05:22.377Z,64.38
2023-02-13T17:07:57.931Z,64.66
2023-02-13T17:10:31.405Z,65.38
2023-02-13T17:13:02.579Z,69.42
2023-02-13T17:15:32.518Z,68.13
2023-02-13T17:18:00.166Z,70.77
2023-02-13T17:20:30.228Z,72.81
2023-02-13T17:23:03.369Z,73.16
2023-02-13T17:25:36.307Z,74.46
2023-02-13T17:28:14.741Z,75.14
2023-02-13T17:30:42.969Z,78.44
2023-02-13T17:33:28.487Z,76.78
2023-02-13T17:35:56.015Z,77.24
2023-02-13T17:38:23.521Z,81.15
2023-02-13T17:40:51.094Z,80.50
2023-02-13T17:43:19.533Z,78.74
2023-02-13T17:45:48.123Z,78.18
2023-02-13T17:48:16.004Z,78.27
2023-02-13T17:50:43.473Z,81.38
2023-02-13T17:53:30.481Z,81.48
2023-02-13T17:55:58.373Z,83.08
2023-02-13T17:58:25.383Z,84.49
2023-02-13T18:00:53.559Z,83.42
2023-02-13T18:03:21.124Z,84.13
2023-02-13T18:05:49.801Z,85.72
2023-02-13T18:08:16.966Z,87.01
2023-02-13T18:10:44.904Z,88.10
2023-02-13T18:13:12.034Z,88.15
2023-02-13T18:15:44.421Z,89.44
2023-02-13T18:18:13.622Z,88.87
2023-02-13T18:20:40.678Z,91.78
2023-02-13T18:23:08.258Z,91.50
2023-02-13T18:25:35.682Z,92.63
2023-02-13T18:28:03.071Z,93.31
2023-02-13T18:30:30.272Z,92.58
2023-02-13T18:32:59.448Z,94.26
2023-02-13T18:35:27.071Z,94.49
2023-02-13T18:37:54.358Z,93.30
2023-02-13T18:40:21.933Z,94.38
2023-02-13T18:42:52.635Z,94.21
2023-02-13T18:45:19.788Z,97.15
2023-02-13T18:47:46.814Z,100.00
2023-02-13T18:50:14.249Z,100.00
2023-02-13T18:52:41.224Z,100.00
2023-02-13T18:55:08.593Z,100.00
2023-02-13T18:57:35.806Z,100.00
2023-02-13T19:00:04.909Z,100.00
2023-02-13T19:02:33.590Z,100.00
2023-02-13T19:05:01.534Z,100.00
2023-02-13T19:07:28.558Z,100.00
2023-02-13T19:09:56.061Z,100.00
2023-02-13T19:12:23.134Z,100.00
2023-02-13T19:14:50.268Z,100.00
2023-02-13T19:17:17.244Z,100.00
2023-02-13T19:19:48.990Z,100.00
2023-02-13T19:22:16.104Z,100.00
2023-02-13T19:24:43.942Z,100.00
2023-02-13T19:27:11.602Z,100.00
2023-02-13T19:29:39.350Z,100.00
2023-02-13T19:32:06.600Z,100.00
2023-02-13T19:34:34.031Z,100.00
2023-02-13T19:37:01.365Z,100.00
2023-02-13T19:39:28.607Z,100.00
2023-02-13T19:41:55.619Z,100.00
2023-02-13T19:44:23.292Z,100.00
2023-02-13T19:46:50.399Z,100.00
2023-02-13T19:49:19.196Z,100.00
2023-02-13T19:51:47.354Z,100.00
2023-02-13T19:54:14.857Z,100.00
2023-02-13T19:56:41.891Z,100.00
2023-02-13T19:59:13.781Z,100.00
2023-02-13T20:01:43.071Z,100.00
2023-02-13T20:04:15.543Z,100.00
2023-02-13T20:06:45.399Z,100.00
2023-02-13T20:09:14.266Z,100.00
2023-02-13T20:11:43.607Z,100.00
2023-02-13T20:14:15.281Z,100.00
2023-02-13T20:16:45.891Z,100.00
2023-02-13T20:19:14.608Z,100.00
2023-02-13T20:21:42.779Z,100.00
2023-02-13T20:24:10.918Z,100.00
2023-02-13T20:26:38.452Z,100.00
2023-02-13T20:29:06.124Z,100.00
2023-02-13T20:31:34.663Z,100.00
2023-02-13T20:34:05.741Z,100.00
2023-02-13T20:36:33.566Z,100.00
2023-02-13T20:39:03.992Z,100.00
2023-02-13T20:41:33.673Z,100.00
2023-02-13T20:44:04.173Z,100.00
2023-02-13T20:46:33.249Z,100.00
2023-02-13T20:49:00.299Z,100.00
2023-02-13T20:51:28.072Z,100.00
2023-02-13T20:53:55.515Z,100.00
2023-02-13T20:56:25.343Z,100.00
2023-02-13T20:58:53.593Z,100.00
2023-02-13T21:01:26.896Z,100.00
2023-02-13T21:03:55.454Z,100.00
2023-02-13T21:06:24.330Z,100.00
2023-02-13T21:08:52.348Z,100.00
2023-02-13T21:11:19.789Z,100.00
2023-02-13T21:13:47.960Z,100.00
2023-02-13T21:16:20.387Z,100.00
2023-02-13T21:18:50.556Z,100.00
2023-02-13T21:21:18.527Z,100.00
2023-02-13T21:23:46.204Z,100.00
2023-02-13T21:26:15.768Z,100.00
2023-02-13T21:28:46.569Z,100.00
2023-02-13T21:31:27.939Z,100.00
2023-02-13T21:34:21.380Z,100.00
2023-02-13T21:36:49.193Z,100.00
2023-02-13T21:39:16.817Z,100.00
2023-02-13T21:41:46.336Z,100.00
2023-02-13T21:44:17.102Z,100.00
2023-02-13T21:46:45.439Z,100.00
2023-02-13T21:49:15.314Z,100.00
2023-02-13T21:51:43.749Z,100.00
2023-02-13T21:54:11.706Z,100.00
2023-02-13T21:56:40.749Z,100.00
2023-02-13T21:59:08.310Z,100.00
2023-02-13T22:01:46.268Z,100.00
2023-02-13T22:04:13.652Z,100.00
2023-02-13T22:06:41.198Z,100.00
2023-02-13T22:09:14.517Z,100.00
2023-02-13T22:11:42.635Z,100.00
2023-02-13T22:14:13.478Z,100.00
2023-02-13T22:16:40.653Z,100.00
2023-02-13T22:19:16.072Z,100.00
2023-02-13T22:21:43.639Z,100.00
2023-02-13T22:24:13.901Z,100.00
2023-02-13T22:26:45.401Z,100.00
2023-02-13T22:29:15.417Z,100.00
2023-02-13T22:31:42.772Z,100.00
2023-02-13T22:34:13.582Z,100.00
2023-02-13T22:36:42.057Z,100.00
2023-02-13T22:39:11.615Z,100.00
2023-02-13T22:41:38.975Z,100.00
2023-02-13T22:44:06.185Z,100.00
2023-02-13T22:46:34.433Z,100.00
2023-02-13T22:49:01.567Z,100.00
2023-02-13T22:51:34.043Z,100.00
2023-02-13T22:54:01.848Z,100.00
2023-02-13T22:56:30.252Z,100.00
2023-02-13T22:58:57.891Z,100.00
2023-02-13T23:01:26.622Z,100.00
2023-02-13T23:03:54.318Z,100.00
2023-02-13T23:06:22.121Z,100.00
2023-02-13T23:08:52.786Z,100.00
2023-02-13T23:11:41.884Z,100.00
2023-02-13T23:14:10.512Z,100.00
2023-02-13T23:16:57.200Z,100.00
2023-02-13T23:19:25.678Z,100.00
2023-02-13T23:21:52.679Z,100.00
2023-02-13T23:24:19.628Z,100.00
2023-02-13T23:26:46.768Z,100.00
2023-02-13T23:29:14.020Z,100.00
2023-02-13T23:31:41.380Z,100.00
2023-02-13T23:34:08.781Z,100.00
2023-02-13T23:36:35.813Z,100.00
2023-02-13T23:39:02.818Z,100.00
2023-02-13T23:41:29.878Z,100.00
2023-02-13T23:43:57.049Z,100.00
2023-02-13T23:46:24.157Z,100.00
2023-02-13T23:48:51.184Z,100.00
2023-02-13T23:51:18.683Z,100.00
2023-02-13T23:53:45.771Z,100.00
2023-02-13T23:56:12.834Z,100.00
2023-02-13T23:58:39.895Z,100.00
